Time;durP1;ratioP1;P1;durP2;ratioP2;P2;SDS_P1;SDS_P2;PMS_P1;PMS_P2;Temp;Humidity;BMP_temperature;BMP_pressure;BME280_temperature;BME280_humidity;BME280_pressure;Samples;Min_cycle;Max_cycle;Signal;HPM_P1;HPM_P2
2022/09/27 00:02:25;;;;;;;9.00;4.70;;;9.50;99.90;;;;;;4943176;28;20367;-75
2022/09/27 00:04:52;;;;;;;8.80;4.75;;;9.50;99.90;;;;;;4962429;28;20050;-75
2022/09/27 00:07:19;;;;;;;5.68;4.65;;;9.50;99.90;;;;;;4949915;28;20525;-74
2022/09/27 00:09:45;;;;;;;5.07;4.68;;;9.50;99.90;;;;;;4962019;28;20116;-75
2022/09/27 00:12:12;;;;;;;5.68;4.90;;;9.50;99.90;;;;;;4958283;28;20045;-74
2022/09/27 00:14:39;;;;;;;6.22;5.15;;;9.50;99.90;;;;;;4962729;28;20142;-74
2022/09/27 00:17:05;;;;;;;7.03;4.85;;;9.50;99.90;;;;;;4968136;28;20126;-73
2022/09/27 00:19:33;;;;;;;8.55;5.03;;;9.50;99.90;;;;;;4960009;28;20055;-75
2022/09/27 00:22:00;;;;;;;7.47;5.10;;;9.50;99.90;;;;;;4971456;28;20142;-75
2022/09/27 00:24:27;;;;;;;10.80;6.50;;;9.50;99.90;;;;;;4960856;28;20057;-75
2022/09/27 00:26:53;;;;;;;6.00;5.40;;;9.50;99.90;;;;;;4944299;28;20065;-73
2022/09/27 00:29:20;;;;;;;6.10;5.47;;;9.60;99.90;;;;;;4950152;28;20134;-75
2022/09/27 00:31:47;;;;;;;10.48;6.00;;;9.50;99.90;;;;;;4943651;28;20043;-75
2022/09/27 00:34:23;;;;;;;8.32;5.85;;;9.50;99.90;;;;;;4959541;28;20727;-75
2022/09/27 00:36:51;;;;;;;11.20;6.82;;;9.50;99.90;;;;;;4960468;28;20640;-75
2022/09/27 00:39:18;;;;;;;13.20;5.93;;;9.50;99.90;;;;;;4940766;28;20540;-75
2022/09/27 00:41:45;;;;;;;11.52;7.25;;;9.50;99.90;;;;;;4959072;28;20229;-75
2022/09/27 00:44:24;;;;;;;13.50;6.95;;;9.50;99.90;;;;;;4971307;28;20042;-77
2022/09/27 00:47:00;;;;;;;13.35;7.07;;;9.40;99.90;;;;;;4938045;28;20400;-74
2022/09/27 00:49:57;;;;;;;13.13;7.10;;;9.40;99.90;;;;;;4936437;28;20150;-74
2022/09/27 00:52:51;;;;;;;13.05;7.57;;;9.50;99.90;;;;;;4961908;28;20542;-74
2022/09/27 00:55:25;;;;;;;15.77;7.97;;;9.40;99.90;;;;;;4927763;28;20775;-75
2022/09/27 00:57:52;;;;;;;11.05;7.70;;;9.40;99.90;;;;;;4936190;28;20691;-74
2022/09/27 01:00:20;;;;;;;18.98;8.63;;;9.50;99.90;;;;;;4946525;28;20125;-74
2022/09/27 01:02:51;;;;;;;13.98;8.02;;;9.40;99.90;;;;;;4958508;28;20058;-75
2022/09/27 01:05:22;;;;;;;15.80;8.82;;;9.50;99.90;;;;;;4953739;28;20055;-75
2022/09/27 01:07:49;;;;;;;21.55;9.07;;;9.50;99.90;;;;;;4967445;28;20046;-75
2022/09/27 01:10:17;;;;;;;15.30;8.63;;;9.40;99.90;;;;;;4965006;28;20194;-74
2022/09/27 01:12:54;;;;;;;15.45;8.95;;;9.40;99.90;;;;;;4949355;28;20070;-77
2022/09/27 01:15:39;;;;;;;13.63;8.07;;;9.40;99.90;;;;;;4947016;28;20134;-75
2022/09/27 01:18:34;;;;;;;13.98;8.18;;;9.40;99.90;;;;;;4951028;28;20100;-75
2022/09/27 01:21:29;;;;;;;20.20;8.13;;;9.40;99.90;;;;;;4959462;28;20042;-77
2022/09/27 01:23:56;;;;;;;14.45;8.20;;;9.50;99.90;;;;;;4940095;28;20142;-75
2022/09/27 01:26:26;;;;;;;18.25;8.85;;;9.40;99.90;;;;;;4942802;28;20050;-76
2022/09/27 01:29:11;;;;;;;21.10;9.18;;;9.40;99.90;;;;;;4962018;28;20109;-77
2022/09/27 01:31:50;;;;;;;16.02;8.90;;;9.40;99.90;;;;;;4950735;28;20496;-75
2022/09/27 01:34:40;;;;;;;15.68;9.60;;;9.50;99.90;;;;;;4951930;28;20049;-77
2022/09/27 01:37:23;;;;;;;12.23;8.23;;;9.50;99.90;;;;;;4962117;28;20595;-74
2022/09/27 01:40:35;;;;;;;15.43;9.20;;;9.40;99.90;;;;;;4956602;28;20064;-76
2022/09/27 01:43:44;;;;;;;15.00;8.93;;;9.40;99.90;;;;;;4948231;28;20042;-75
2022/09/27 01:46:19;;;;;;;21.00;8.98;;;9.40;99.90;;;;;;4950776;28;20066;-77
2022/09/27 01:49:21;;;;;;;15.27;9.82;;;9.40;99.90;;;;;;4958193;28;20042;-75
2022/09/27 01:51:54;;;;;;;17.83;9.82;;;9.40;99.90;;;;;;4951797;28;20042;-74
2022/09/27 01:54:29;;;;;;;14.38;9.35;;;9.40;99.90;;;;;;4964903;28;20071;-77
2022/09/27 01:57:35;;;;;;;18.40;9.60;;;9.40;99.90;;;;;;4955821;28;20047;-74
2022/09/27 02:00:08;;;;;;;18.20;10.07;;;9.40;99.90;;;;;;4953192;28;20047;-74
2022/09/27 02:02:58;;;;;;;17.77;9.57;;;9.40;99.90;;;;;;4972340;28;20086;-75
2022/09/27 02:05:44;;;;;;;19.92;10.98;;;9.30;99.90;;;;;;4962605;28;20496;-75
2022/09/27 02:08:35;;;;;;;22.45;10.45;;;9.40;99.90;;;;;;4959758;28;20086;-75
2022/09/27 02:11:12;;;;;;;15.20;9.73;;;9.30;99.90;;;;;;4947017;28;20039;-76
2022/09/27 02:14:06;;;;;;;19.45;9.85;;;9.30;99.90;;;;;;4961203;28;20121;-76
2022/09/27 02:16:50;;;;;;;16.95;10.25;;;9.30;99.90;;;;;;4968309;28;20042;-76
2022/09/27 02:19:44;;;;;;;17.17;10.77;;;9.30;99.90;;;;;;4962750;28;20078;-76
2022/09/27 02:22:20;;;;;;;19.73;12.32;;;9.30;99.90;;;;;;4966839;28;20087;-76
2022/09/27 02:24:56;;;;;;;17.08;10.80;;;9.20;99.90;;;;;;4968280;28;20043;-76
2022/09/27 02:27:37;;;;;;;19.25;11.00;;;9.30;99.90;;;;;;4966388;28;20057;-76
2022/09/27 02:30:14;;;;;;;16.17;10.20;;;9.20;99.90;;;;;;4947860;28;20077;-76
2022/09/27 02:32:43;;;;;;;14.55;9.38;;;9.30;99.90;;;;;;4963603;28;20094;-75
2022/09/27 02:35:23;;;;;;;14.50;7.75;;;9.30;99.90;;;;;;4954473;28;20129;-75
2022/09/27 02:37:50;;;;;;;11.90;6.78;;;9.30;99.90;;;;;;4958354;28;20463;-76
2022/09/27 02:40:18;;;;;;;10.68;6.30;;;9.40;99.90;;;;;;4948123;28;20042;-75
2022/09/27 02:42:46;;;;;;;12.32;5.97;;;9.30;99.90;;;;;;4950305;28;20082;-75
2022/09/27 02:45:16;;;;;;;13.35;4.90;;;9.30;99.90;;;;;;4966641;28;20061;-77
2022/09/27 02:48:10;;;;;;;8.80;4.30;;;9.30;99.90;;;;;;4958475;28;20053;-76
2022/09/27 02:50:40;;;;;;;8.52;4.60;;;9.30;99.90;;;;;;4948083;28;20847;-76
2022/09/27 02:53:44;;;;;;;9.25;4.65;;;9.20;99.90;;;;;;4965287;28;20050;-76
2022/09/27 02:56:56;;;;;;;7.82;3.72;;;9.20;99.90;;;;;;4968346;28;20069;-76
2022/09/27 02:59:44;;;;;;;11.73;4.72;;;9.10;99.90;;;;;;4966489;28;20197;-76
2022/09/27 03:02:37;;;;;;;9.63;5.18;;;9.10;99.90;;;;;;4950443;28;20046;-79
2022/09/27 03:05:38;;;;;;;11.05;5.07;;;9.10;99.90;;;;;;4965980;28;20038;-75
2022/09/27 03:08:06;;;;;;;25.60;6.15;;;9.10;99.90;;;;;;4952751;28;20051;-79
2022/09/27 03:10:33;;;;;;;19.38;6.75;;;9.10;99.90;;;;;;4952953;28;20051;-76
2022/09/27 03:12:59;;;;;;;16.17;7.35;;;9.10;99.90;;;;;;4955731;28;20096;-76
2022/09/27 03:15:26;;;;;;;13.00;6.00;;;9.10;99.90;;;;;;4954604;28;20508;-75
2022/09/27 03:17:59;;;;;;;16.67;6.07;;;9.10;99.90;;;;;;4953510;28;20516;-78
2022/09/27 03:20:41;;;;;;;12.20;6.55;;;9.10;99.90;;;;;;4954474;28;20653;-75
2022/09/27 03:23:10;;;;;;;12.10;6.13;;;9.10;99.90;;;;;;4969919;28;20142;-77
2022/09/27 03:25:36;;;;;;;15.90;7.25;;;9.00;99.90;;;;;;4940915;28;20112;-76
2022/09/27 03:28:03;;;;;;;18.00;7.20;;;9.00;99.90;;;;;;4970014;28;20130;-76
2022/09/27 03:30:31;;;;;;;19.83;7.63;;;9.10;99.90;;;;;;4964751;28;20070;-75
2022/09/27 03:32:57;;;;;;;21.10;8.05;;;9.10;99.90;;;;;;4937548;28;20031;-75
2022/09/27 03:35:44;;;;;;;17.08;7.32;;;9.10;99.90;;;;;;4959007;28;20046;-75
2022/09/27 03:38:12;;;;;;;18.30;7.03;;;9.10;99.90;;;;;;4968005;28;20053;-76
2022/09/27 03:40:39;;;;;;;17.50;7.95;;;9.00;99.90;;;;;;4967778;28;20042;-75
2022/09/27 03:43:07;;;;;;;20.80;8.52;;;9.00;99.90;;;;;;4951690;28;20070;-76
2022/09/27 03:45:33;;;;;;;23.42;9.45;;;9.10;99.90;;;;;;4951061;28;20046;-75
2022/09/27 03:48:04;;;;;;;17.50;6.70;;;9.10;99.90;;;;;;4950158;28;20039;-75
2022/09/27 03:50:31;;;;;;;17.52;7.15;;;9.10;99.90;;;;;;4960433;28;20039;-78
2022/09/27 03:52:58;;;;;;;15.18;5.00;;;9.00;99.90;;;;;;4941069;28;20046;-75
2022/09/27 03:55:25;;;;;;;11.10;5.15;;;9.00;99.90;;;;;;4944579;28;20576;-79
2022/09/27 03:57:52;;;;;;;9.07;4.13;;;9.00;99.90;;;;;;4962209;28;20093;-78
2022/09/27 04:00:20;;;;;;;10.93;4.82;;;9.00;99.90;;;;;;4948284;28;20050;-78
2022/09/27 04:02:47;;;;;;;12.40;3.65;;;9.00;99.90;;;;;;4971008;28;20034;-77
2022/09/27 04:05:24;;;;;;;6.63;1.80;;;9.00;99.90;;;;;;4966861;28;20046;-79
2022/09/27 04:08:06;;;;;;;5.72;2.35;;;9.00;99.90;;;;;;4960920;28;20423;-78
2022/09/27 04:10:35;;;;;;;10.07;3.63;;;8.90;99.90;;;;;;4950865;28;20476;-77
2022/09/27 04:13:02;;;;;;;20.05;5.55;;;8.90;99.90;;;;;;4948804;28;20046;-77
2022/09/27 04:15:34;;;;;;;14.48;6.85;;;8.90;99.90;;;;;;4924008;28;20053;-77
2022/09/27 04:18:19;;;;;;;;;;;8.80;99.90;;;;;;4966431;28;20114;-75
2022/09/27 04:21:05;;;;;;;19.13;6.03;;;8.80;99.90;;;;;;4970257;28;19945;-76
2022/09/27 04:23:34;;;;;;;17.05;6.82;;;8.70;99.90;;;;;;4965965;28;20704;-75
2022/09/27 04:26:01;;;;;;;16.77;7.53;;;8.70;99.90;;;;;;4950593;28;20423;-78
2022/09/27 04:28:50;;;;;;;16.95;6.78;;;8.70;99.90;;;;;;4956406;28;20150;-78
2022/09/27 04:31:20;;;;;;;15.15;7.57;;;8.70;99.90;;;;;;4939849;28;20055;-75
2022/09/27 04:34:07;;;;;;;19.08;8.55;;;8.70;99.90;;;;;;4964089;28;20057;-75
2022/09/27 04:36:35;;;;;;;18.33;7.85;;;8.80;99.90;;;;;;4949097;28;20512;-75
2022/09/27 04:39:25;;;;;;;20.38;8.40;;;8.70;99.90;;;;;;4967926;28;20730;-78
2022/09/27 04:41:53;;;;;;;23.17;8.05;;;8.80;99.90;;;;;;4969898;28;20041;-78
2022/09/27 04:44:20;;;;;;;21.55;8.48;;;8.70;99.90;;;;;;4950209;28;20102;-76
2022/09/27 04:46:49;;;;;;;21.38;7.30;;;8.80;99.90;;;;;;4958623;28;20043;-77
2022/09/27 04:49:15;;;;;;;23.73;6.78;;;8.70;99.90;;;;;;4951654;28;20496;-76
2022/09/27 04:51:43;;;;;;;23.52;7.78;;;8.60;99.90;;;;;;4950491;28;20050;-78
2022/09/27 04:54:10;;;;;;;22.10;7.85;;;8.70;99.90;;;;;;4949014;28;20057;-76
2022/09/27 04:56:47;;;;;;;19.02;7.03;;;8.70;99.90;;;;;;4954229;28;20053;-78
2022/09/27 04:59:14;;;;;;;17.65;8.30;;;8.70;99.90;;;;;;4966634;28;20064;-79
2022/09/27 05:01:41;;;;;;;20.35;7.53;;;8.70;99.90;;;;;;4952144;28;20038;-74
2022/09/27 05:04:27;;;;;;;19.58;6.13;;;8.70;99.90;;;;;;4952217;28;20140;-78
2022/09/27 05:06:56;;;;;;;16.85;7.18;;;8.60;99.90;;;;;;4966165;28;20049;-78
2022/09/27 05:09:34;;;;;;;15.13;6.70;;;8.60;99.90;;;;;;4969266;28;20035;-75
2022/09/27 05:12:04;;;;;;;17.70;7.15;;;8.60;99.90;;;;;;4964964;28;20503;-75
2022/09/27 05:14:55;;;;;;;14.38;6.40;;;8.60;99.90;;;;;;4959236;28;20039;-75
2022/09/27 05:17:41;;;;;;;13.70;5.70;;;8.70;99.90;;;;;;4982988;28;20042;-76
2022/09/27 05:20:37;;;;;;;10.57;5.80;;;8.70;99.90;;;;;;4925821;28;20059;-74
2022/09/27 05:23:22;;;;;;;12.80;5.97;;;8.60;99.90;;;;;;4969296;28;20094;-75
2022/09/27 05:25:48;;;;;;;12.95;6.18;;;8.60;99.90;;;;;;4951774;28;20097;-74
2022/09/27 05:28:15;;;;;;;15.18;6.32;;;8.60;99.90;;;;;;4956254;28;20134;-77
2022/09/27 05:30:42;;;;;;;14.75;7.38;;;8.60;99.90;;;;;;4956504;28;20125;-75
2022/09/27 05:33:15;;;;;;;13.57;6.60;;;8.60;99.90;;;;;;4952579;28;20050;-74
2022/09/27 05:35:43;;;;;;;17.58;6.93;;;8.60;99.90;;;;;;4966703;28;20089;-77
2022/09/27 05:38:11;;;;;;;16.40;7.60;;;8.60;99.90;;;;;;4954101;28;20138;-74
2022/09/27 05:40:43;;;;;;;20.33;7.90;;;8.60;99.90;;;;;;4947208;28;20046;-75
2022/09/27 05:43:10;;;;;;;24.25;8.20;;;8.60;99.90;;;;;;4954190;28;20051;-76
2022/09/27 05:45:37;;;;;;;16.33;7.20;;;8.60;99.90;;;;;;4958024;28;20046;-77
2022/09/27 05:48:05;;;;;;;12.32;6.25;;;8.60;99.90;;;;;;4970622;28;20412;-77
2022/09/27 05:50:37;;;;;;;14.48;6.85;;;8.60;99.90;;;;;;4952050;28;20046;-76
2022/09/27 05:53:04;;;;;;;20.35;7.50;;;8.60;99.90;;;;;;4967365;28;20077;-75
2022/09/27 05:55:31;;;;;;;24.05;8.77;;;8.60;99.90;;;;;;4953123;28;20038;-75
2022/09/27 05:58:01;;;;;;;18.70;8.48;;;8.50;99.90;;;;;;4951434;28;20035;-74
2022/09/27 06:00:37;;;;;;;16.40;8.02;;;8.60;99.90;;;;;;4955235;28;20511;-74
2022/09/27 06:03:19;;;;;;;12.27;5.65;;;8.50;99.90;;;;;;4966264;28;20043;-75
2022/09/27 06:06:24;;;;;;;14.05;7.05;;;8.50;99.90;;;;;;4918627;29;20535;-75
2022/09/27 06:08:55;;;;;;;16.10;7.13;;;8.50;99.90;;;;;;4913315;29;20056;-78
2022/09/27 06:11:26;;;;;;;17.98;7.00;;;8.50;99.90;;;;;;4922094;28;20122;-76
2022/09/27 06:13:53;;;;;;;22.25;8.88;;;8.50;99.90;;;;;;4948866;28;20046;-76
2022/09/27 06:16:20;;;;;;;15.80;7.85;;;8.50;99.90;;;;;;4951053;28;20062;-75
2022/09/27 06:18:47;;;;;;;20.35;8.43;;;8.50;99.90;;;;;;4954190;28;20067;-75
2022/09/27 06:21:15;;;;;;;22.38;8.32;;;8.50;99.90;;;;;;4955293;28;20083;-78
2022/09/27 06:23:49;;;;;;;20.92;10.15;;;8.40;99.90;;;;;;4969452;28;20641;-77
2022/09/27 06:26:26;;;;;;;24.90;11.05;;;8.40;99.90;;;;;;4968324;28;20070;-75
2022/09/27 06:29:21;;;;;;;18.45;9.05;;;8.50;99.90;;;;;;4920274;28;20075;-77
2022/09/27 06:31:58;;;;;;;28.63;11.02;;;8.50;99.90;;;;;;4964452;28;20035;-78
2022/09/27 06:34:36;;;;;;;29.25;10.48;;;8.60;99.90;;;;;;4956898;28;20054;-77
2022/09/27 06:37:03;;;;;;;23.23;8.38;;;8.60;99.90;;;;;;4952037;28;20047;-77
2022/09/27 06:39:32;;;;;;;19.42;8.88;;;8.50;99.90;;;;;;4943829;28;20050;-78
2022/09/27 06:42:17;;;;;;;17.75;8.57;;;8.60;99.90;;;;;;4961907;28;20154;-77
2022/09/27 06:45:03;;;;;;;24.08;8.05;;;8.60;99.90;;;;;;4959791;28;20058;-77
2022/09/27 06:47:48;;;;;;;19.55;8.20;;;8.50;99.90;;;;;;4968862;28;20043;-77
2022/09/27 06:50:23;;;;;;;15.40;7.82;;;8.50;99.90;;;;;;4951657;28;20050;-77
2022/09/27 06:52:50;;;;;;;17.63;8.32;;;8.60;99.90;;;;;;4971442;28;20050;-77
2022/09/27 06:55:18;;;;;;;19.08;7.35;;;8.60;99.90;;;;;;4951472;28;20078;-77
2022/09/27 07:00:30;;;;;;;18.83;8.35;;;8.50;99.90;;;;;;4951491;28;20074;-77
2022/09/27 07:03:13;;;;;;;17.45;9.10;;;8.50;99.90;;;;;;4968665;28;20104;-77
2022/09/27 07:06:00;;;;;;;15.77;8.25;;;8.50;99.90;;;;;;4953656;28;20043;-77
2022/09/27 07:08:38;;;;;;;15.10;7.03;;;8.50;99.90;;;;;;4943022;28;20046;-78
2022/09/27 07:11:06;;;;;;;16.42;7.43;;;8.50;99.90;;;;;;4958513;28;20133;-76
2022/09/27 07:13:39;;;;;;;12.85;6.82;;;8.50;99.90;;;;;;4967142;28;20142;-77
2022/09/27 07:16:06;;;;;;;11.23;7.80;;;8.50;99.90;;;;;;4953104;28;20111;-75
2022/09/27 07:18:33;;;;;;;12.38;8.15;;;8.50;99.90;;;;;;4974078;28;20062;-77
2022/09/27 07:21:00;;;;;;;14.43;7.70;;;8.50;99.90;;;;;;4951321;28;20046;-77
2022/09/27 07:23:28;;;;;;;16.55;7.30;;;8.50;99.90;;;;;;4946904;28;20520;-76
2022/09/27 07:26:03;;;;;;;16.13;7.78;;;8.50;99.90;;;;;;4954388;28;20732;-77
2022/09/27 07:28:30;;;;;;;18.80;9.50;;;8.60;99.90;;;;;;4934488;28;20058;-76
2022/09/27 07:30:57;;;;;;;18.17;9.27;;;8.50;99.90;;;;;;4972899;28;20697;-76
2022/09/27 07:33:25;;;;;;;18.65;9.45;;;8.60;99.90;;;;;;4966518;28;20060;-77
2022/09/27 07:35:51;;;;;;;19.13;10.18;;;8.60;99.90;;;;;;4951302;28;20090;-76
2022/09/27 07:38:19;;;;;;;15.18;9.02;;;8.60;99.90;;;;;;4942959;28;20043;-76
2022/09/27 07:40:45;;;;;;;22.05;9.05;;;8.60;99.90;;;;;;4947593;28;20051;-75
2022/09/27 07:43:12;;;;;;;22.67;10.60;;;8.60;99.90;;;;;;4973209;28;20046;-76
2022/09/27 07:45:40;;;;;;;20.65;8.35;;;8.60;99.90;;;;;;4969090;28;20039;-76
2022/09/27 07:48:14;;;;;;;22.15;8.95;;;8.60;99.90;;;;;;4966675;28;20039;-78
2022/09/27 07:50:58;;;;;;;18.77;8.90;;;8.60;99.90;;;;;;4954777;28;20035;-77
2022/09/27 07:53:44;;;;;;;18.10;8.00;;;8.60;99.90;;;;;;4944541;28;20049;-76
2022/09/27 07:56:34;;;;;;;16.63;9.65;;;8.60;99.90;;;;;;4957569;28;20050;-77
2022/09/27 07:59:03;;;;;;;24.42;10.77;;;8.60;99.90;;;;;;4944326;28;20440;-75
2022/09/27 08:01:29;;;;;;;26.00;13.30;;;8.70;99.90;;;;;;4965586;28;20062;-76
2022/09/27 08:03:57;;;;;;;22.13;12.27;;;8.70;99.90;;;;;;4968087;28;20439;-75
2022/09/27 08:06:24;;;;;;;23.77;12.13;;;8.80;99.90;;;;;;4974141;28;20062;-75
2022/09/27 08:08:53;;;;;;;25.45;11.65;;;8.90;99.90;;;;;;4975052;28;20112;-75
2022/09/27 08:11:21;;;;;;;22.50;12.98;;;8.80;99.90;;;;;;4949874;28;20541;-75
2022/09/27 08:13:51;;;;;;;23.38;13.68;;;8.80;99.90;;;;;;4951875;28;20066;-76
2022/09/27 08:16:22;;;;;;;28.15;13.98;;;8.90;99.90;;;;;;4975639;28;20393;-76
2022/09/27 08:19:08;;;;;;;26.42;14.45;;;8.90;99.90;;;;;;4971362;28;20069;-77
2022/09/27 08:21:43;;;;;;;25.38;15.02;;;8.90;99.90;;;;;;4964302;28;20105;-75
2022/09/27 08:24:14;;;;;;;28.17;16.50;;;9.00;99.90;;;;;;4973486;28;20042;-77
2022/09/27 08:27:01;;;;;;;31.88;16.90;;;9.00;99.90;;;;;;4970141;28;20230;-76
2022/09/27 08:29:44;;;;;;;30.77;19.10;;;8.90;99.90;;;;;;4971134;28;20038;-78
2022/09/27 08:32:12;;;;;;;29.40;18.63;;;8.90;99.90;;;;;;4960088;28;20042;-76
2022/09/27 08:34:39;;;;;;;32.30;20.38;;;8.90;99.90;;;;;;4966624;28;20047;-77
2022/09/27 08:37:05;;;;;;;48.58;24.02;;;8.90;99.90;;;;;;4949804;28;20035;-76
2022/09/27 08:39:33;;;;;;;41.88;26.00;;;8.80;99.90;;;;;;4969426;28;20049;-78
2022/09/27 08:42:17;;;;;;;38.50;23.80;;;8.80;99.90;;;;;;4968206;28;20038;-77
2022/09/27 08:45:18;;;;;;;38.03;22.67;;;8.70;99.90;;;;;;4951899;28;20066;-76
2022/09/27 08:47:50;;;;;;;38.03;24.17;;;8.80;99.90;;;;;;4948459;28;20046;-76
2022/09/27 08:50:26;;;;;;;35.88;22.23;;;8.90;99.90;;;;;;4950303;28;20050;-77
2022/09/27 08:53:43;;;;;;;39.45;23.92;;;8.90;99.90;;;;;;4965512;28;20053;-76
2022/09/27 08:56:13;;;;;;;33.97;21.45;;;8.90;99.90;;;;;;4905995;29;20047;-75
2022/09/27 08:59:19;;;;;;;27.92;17.83;;;9.10;99.90;;;;;;4921570;29;20091;-77
2022/09/27 09:01:48;;;;;;;37.67;25.02;;;9.10;99.90;;;;;;4982874;23;20233;-74
2022/09/27 09:04:40;;;;;;;38.38;25.17;;;9.00;99.90;;;;;;4986734;28;20326;-74
2022/09/27 09:07:36;;;;;;;39.28;26.52;;;9.10;99.90;;;;;;4961989;28;20049;-74
2022/09/27 09:13:18;;;;;;;40.10;25.35;;;9.10;99.90;;;;;;4923195;28;20063;-74
2022/09/27 09:15:57;;;;;;;28.25;21.50;;;9.40;99.90;;;;;;4947759;28;20050;-74
2022/09/27 09:18:39;;;;;;;33.95;23.13;;;9.50;99.90;;;;;;4952471;28;21325;-74
2022/09/27 09:21:49;;;;;;;34.47;22.27;;;9.60;99.90;;;;;;4959189;28;20059;-73
2022/09/27 09:24:34;;;;;;;28.77;20.92;;;9.70;99.90;;;;;;4955033;28;20172;-75
2022/09/27 09:27:01;;;;;;;;;;;9.70;99.90;;;;;;4956789;28;20297;-74
2022/09/27 09:30:04;;;;;;;27.73;21.83;;;9.70;99.90;;;;;;4947875;28;20375;-74
2022/09/27 09:32:38;;;;;;;33.67;21.38;;;9.60;99.90;;;;;;4967766;28;20084;-74
2022/09/27 09:35:21;;;;;;;30.05;21.73;;;9.60;99.90;;;;;;4946143;28;20077;-73
2022/09/27 09:37:52;;;;;;;26.27;21.23;;;9.50;99.90;;;;;;4959689;28;20050;-73
2022/09/27 09:40:31;;;;;;;23.73;19.08;;;9.40;99.90;;;;;;4954668;28;20054;-75
2022/09/27 09:43:24;;;;;;;34.60;21.33;;;9.40;99.90;;;;;;4953394;28;20533;-75
2022/09/27 09:46:29;;;;;;;29.88;21.10;;;9.60;99.90;;;;;;4941082;28;20306;-75
2022/09/27 09:49:20;;;;;;;31.42;19.00;;;9.70;99.90;;;;;;4946116;28;20399;-74
2022/09/27 09:51:55;;;;;;;22.17;19.55;;;9.60;99.90;;;;;;4978792;28;20045;-73
2022/09/27 09:54:36;;;;;;;29.70;23.10;;;9.50;99.90;;;;;;4968472;28;20411;-74
2022/09/27 09:57:36;;;;;;;30.52;24.25;;;9.40;99.90;;;;;;4974949;28;20039;-75
2022/09/27 10:00:13;;;;;;;32.83;24.88;;;9.40;99.90;;;;;;4939961;28;20046;-76
2022/09/27 10:02:45;;;;;;;26.52;21.17;;;9.60;99.90;;;;;;4961758;28;20590;-74
2022/09/27 10:05:23;;;;;;;22.17;18.35;;;9.90;99.90;;;;;;4963128;28;20263;-73
2022/09/27 10:07:59;;;;;;;23.65;20.10;;;9.90;99.90;;;;;;4966268;28;20097;-73
2022/09/27 10:10:28;;;;;;;26.02;20.65;;;9.90;99.90;;;;;;4950761;28;20639;-74
2022/09/27 10:12:57;;;;;;;19.70;17.95;;;10.00;99.90;;;;;;4971566;28;20053;-76
2022/09/27 10:15:30;;;;;;;22.05;20.10;;;10.20;99.90;;;;;;4964666;28;20672;-75
2022/09/27 10:17:58;;;;;;;21.10;19.17;;;10.10;99.90;;;;;;4952745;28;20366;-74
2022/09/27 10:20:35;;;;;;;23.80;21.60;;;9.90;99.90;;;;;;4966710;28;20049;-74
2022/09/27 10:23:19;;;;;;;23.52;21.42;;;10.10;99.90;;;;;;4935692;28;20038;-75
2022/09/27 10:26:07;;;;;;;23.23;20.85;;;10.30;99.90;;;;;;4963562;28;20132;-75
2022/09/27 10:28:47;;;;;;;23.67;21.73;;;10.80;99.90;;;;;;4937552;28;20050;-74
2022/09/27 10:31:20;;;;;;;22.52;20.98;;;11.00;99.90;;;;;;4945646;28;20497;-72
2022/09/27 10:34:00;;;;;;;24.75;22.75;;;11.00;99.90;;;;;;4962760;28;20050;-73
2022/09/27 10:36:34;;;;;;;23.63;21.90;;;10.80;99.90;;;;;;4982292;28;20047;-73
2022/09/27 10:39:13;;;;;;;22.98;21.15;;;10.80;99.90;;;;;;4947912;28;20050;-74
2022/09/27 10:41:44;;;;;;;28.23;25.58;;;10.60;99.90;;;;;;4978808;28;20065;-73
2022/09/27 10:44:31;;;;;;;23.10;21.05;;;10.50;99.90;;;;;;4971341;28;20053;-74
2022/09/27 10:47:21;;;;;;;12.82;11.75;;;10.20;99.90;;;;;;4951041;28;20049;-82
2022/09/27 10:50:20;;;;;;;11.30;10.70;;;9.70;99.90;;;;;;4974402;28;20109;-80
2022/09/27 10:53:21;;;;;;;12.95;11.65;;;8.80;99.90;;;;;;4972992;28;20222;-80
2022/09/27 10:55:58;;;;;;;11.43;10.60;;;8.50;99.90;;;;;;4961636;28;20052;-78
2022/09/27 10:58:28;;;;;;;11.80;10.75;;;8.40;99.90;;;;;;4972856;28;20467;-78
2022/09/27 11:01:02;;;;;;;14.50;10.38;;;8.30;99.90;;;;;;4949143;28;20089;-77
2022/09/27 11:03:44;;;;;;;15.18;12.30;;;8.40;99.90;;;;;;4987229;28;20065;-77
2022/09/27 11:06:25;;;;;;;22.77;16.98;;;8.50;99.90;;;;;;4948753;28;20046;-76
2022/09/27 11:08:54;;;;;;;22.75;19.73;;;8.70;99.90;;;;;;4964918;28;20169;-75
2022/09/27 11:11:27;;;;;;;32.45;22.35;;;8.90;99.90;;;;;;4965740;28;20042;-77
2022/09/27 11:14:16;;;;;;;27.88;22.00;;;9.00;99.90;;;;;;4950992;28;20153;-76
2022/09/27 11:17:42;;;;;;;32.17;23.17;;;9.20;99.90;;;;;;4967241;28;20038;-77
2022/09/27 11:20:18;;;;;;;32.72;20.60;;;9.20;99.90;;;;;;4904780;29;20043;-75
2022/09/27 11:23:03;;;;;;;31.55;22.38;;;9.10;99.90;;;;;;4947143;28;20329;-77
2022/09/27 11:25:49;;;;;;;25.38;19.25;;;9.10;99.90;;;;;;4953566;28;20695;-75
2022/09/27 11:29:10;;;;;;;27.35;20.55;;;9.00;99.90;;;;;;4971787;28;20054;-77
2022/09/27 11:32:21;;;;;;;23.52;18.90;;;8.90;99.90;;;;;;4909173;28;20071;-76
2022/09/27 11:35:17;;;;;;;19.35;16.45;;;9.20;99.90;;;;;;4984308;28;20073;-77
2022/09/27 11:38:17;;;;;;;24.33;18.35;;;9.10;99.90;;;;;;4967850;28;20050;-77
2022/09/27 11:41:19;;;;;;;19.13;17.05;;;9.20;99.90;;;;;;4953190;28;20120;-76
2022/09/27 11:43:58;;;;;;;21.05;17.23;;;9.20;99.90;;;;;;4950254;28;20050;-75
2022/09/27 11:46:38;;;;;;;17.83;13.68;;;9.50;99.90;;;;;;4952671;28;20042;-75
2022/09/27 11:49:33;;;;;;;16.52;13.75;;;9.50;99.90;;;;;;4962030;28;20407;-75
2022/09/27 11:52:17;;;;;;;15.40;13.77;;;9.70;99.90;;;;;;4953873;28;20046;-74
2022/09/27 11:54:57;;;;;;;14.07;12.27;;;9.60;99.90;;;;;;4965598;28;20205;-76
2022/09/27 11:57:33;;;;;;;17.27;14.75;;;9.40;99.90;;;;;;4968693;28;20061;-75
2022/09/27 12:00:09;;;;;;;17.42;13.60;;;9.30;99.90;;;;;;4962250;28;20141;-75
2022/09/27 12:03:17;;;;;;;18.85;16.20;;;9.20;99.90;;;;;;4951074;28;20050;-78
2022/09/27 12:05:47;;;;;;;21.70;17.50;;;9.20;99.90;;;;;;4899750;29;20298;-76
2022/09/27 12:08:46;;;;;;;19.90;17.42;;;9.20;99.90;;;;;;4913732;29;20081;-77
2022/09/27 12:11:32;;;;;;;17.42;15.52;;;9.30;99.90;;;;;;4946067;28;20252;-74
2022/09/27 12:14:38;;;;;;;20.88;16.65;;;9.20;99.90;;;;;;4952155;28;20144;-78
2022/09/27 12:17:22;;;;;;;15.00;12.82;;;9.40;99.90;;;;;;4968616;28;20420;-79
2022/09/27 12:20:05;;;;;;;15.70;12.73;;;9.30;99.90;;;;;;4959985;28;20592;-76
2022/09/27 12:22:53;;;;;;;15.50;13.90;;;9.40;99.90;;;;;;4965898;28;20200;-76
2022/09/27 12:25:52;;;;;;;14.20;12.90;;;9.50;99.90;;;;;;4958426;28;20045;-75
2022/09/27 12:28:46;;;;;;;13.57;12.40;;;9.50;99.90;;;;;;4953424;28;20077;-76
2022/09/27 12:31:30;;;;;;;12.88;11.65;;;9.70;99.90;;;;;;4958611;28;20526;-76
2022/09/27 12:34:12;;;;;;;11.38;10.45;;;9.80;99.90;;;;;;4966201;28;20048;-75
2022/09/27 12:36:51;;;;;;;13.18;12.18;;;10.10;99.90;;;;;;4964915;28;20140;-72
2022/09/27 12:39:27;;;;;;;15.30;14.30;;;10.40;99.90;;;;;;4964692;28;20045;-75
2022/09/27 12:42:16;;;;;;;15.38;14.48;;;10.30;99.90;;;;;;4953736;28;20891;-74
2022/09/27 12:44:45;;;;;;;16.00;15.02;;;10.30;99.90;;;;;;4956977;28;20041;-74
2022/09/27 12:47:22;;;;;;;15.93;15.07;;;10.10;99.90;;;;;;4962482;28;20042;-73
2022/09/27 12:49:48;;;;;;;15.73;14.80;;;10.00;99.90;;;;;;4961998;28;20074;-74
2022/09/27 12:52:24;;;;;;;15.27;14.18;;;10.00;99.90;;;;;;4940281;28;20042;-74
2022/09/27 12:55:25;;;;;;;15.48;14.68;;;10.00;99.90;;;;;;4947547;28;20122;-75
2022/09/27 12:58:13;;;;;;;15.95;14.68;;;9.90;99.90;;;;;;4949937;28;20038;-76
2022/09/27 13:00:50;;;;;;;16.20;15.18;;;9.80;99.90;;;;;;4980030;28;20042;-76
2022/09/27 13:03:39;;;;;;;16.10;15.07;;;9.80;99.90;;;;;;4995198;22;20199;-68
2022/09/27 13:06:35;;;;;;;17.10;16.00;;;9.70;99.90;;;;;;5030486;28;20050;-69
2022/09/27 13:09:25;;;;;;;15.82;14.82;;;9.70;99.90;;;;;;5037081;28;20048;-68
2022/09/27 13:12:09;;;;;;;15.43;14.52;;;9.80;99.90;;;;;;5036767;28;20045;-67
2022/09/27 13:14:43;;;;;;;;;;;9.80;99.90;;;;;;5022492;28;20041;-68
2022/09/27 13:17:42;;;;;;;16.83;15.68;;;9.70;99.90;;;;;;5021082;28;20108;-67
2022/09/27 13:20:33;;;;;;;17.50;16.35;;;9.60;99.90;;;;;;5023972;28;20048;-68
2022/09/27 13:23:18;;;;;;;16.17;15.27;;;9.70;99.90;;;;;;5019687;28;20491;-68
2022/09/27 13:25:53;;;;;;;17.75;16.55;;;9.60;99.90;;;;;;5019752;28;20416;-68
2022/09/27 13:28:57;;;;;;;18.20;17.17;;;9.70;99.90;;;;;;5024655;28;20922;-68
2022/09/27 13:31:58;;;;;;;16.88;15.85;;;10.10;99.90;;;;;;5019415;28;20132;-68
2022/09/27 13:34:52;;;;;;;20.17;18.77;;;10.50;99.90;;;;;;5020699;28;20438;-68
2022/09/27 13:37:44;;;;;;;20.20;18.90;;;10.40;99.90;;;;;;5041782;28;20391;-68
2022/09/27 13:40:14;;;;;;;19.90;18.80;;;10.30;99.90;;;;;;5007065;28;20044;-68
2022/09/27 13:43:09;;;;;;;21.02;19.88;;;10.20;99.90;;;;;;5030640;28;20157;-68
2022/09/27 13:46:04;;;;;;;19.67;18.48;;;9.90;99.90;;;;;;5006102;28;20052;-68
2022/09/27 13:49:05;;;;;;;21.08;19.55;;;9.90;99.90;;;;;;5004000;28;20044;-68